Time;durP1;ratioP1;P1;durP2;ratioP2;P2;SDS_P1;SDS_P2;PMS_P1;PMS_P2;Temp;Humidity;BMP_temperature;BMP_pressure;BME280_temperature;BME280_humidity;BME280_pressure;Samples;Min_cycle;Max_cycle;Signal;HPM_P1;HPM_P2
2023/09/13 00:01:12;;;;;;;5.47;3.42;;;;;;;18.41;100.00;101238.47;5070278;28;20044;-70
2023/09/13 00:03:38;;;;;;;3.95;3.33;;;;;;;18.44;100.00;101182.56;5070374;28;20028;-69
2023/09/13 00:06:03;;;;;;;5.05;3.50;;;;;;;18.70;100.00;101266.50;5070122;28;20564;-69
2023/09/13 00:08:29;;;;;;;3.88;3.22;;;;;;;18.55;100.00;101246.53;5070171;28;20032;-70
2023/09/13 00:11:04;;;;;;;4.45;3.20;;;;;;;18.60;100.00;101205.97;5068781;28;20040;-69
2023/09/13 00:13:31;;;;;;;4.97;3.10;;;;;;;18.82;100.00;101260.84;5070353;28;20048;-69
2023/09/13 00:15:56;;;;;;;4.80;3.20;;;;;;;18.47;100.00;101257.16;5070231;28;20024;-69
2023/09/13 00:18:21;;;;;;;5.35;3.40;;;;;;;17.75;100.00;101205.88;5069643;28;20039;-68
2023/09/13 00:20:51;;;;;;;4.75;3.17;;;;;;;18.42;100.00;101320.84;5070156;28;20025;-68
2023/09/13 00:23:16;;;;;;;5.57;3.25;;;;;;;17.96;100.00;101303.72;5069820;28;20029;-68
2023/09/13 00:25:42;;;;;;;4.18;3.28;;;;;;;18.65;100.00;101359.47;5070014;28;20090;-69
2023/09/13 00:28:07;;;;;;;4.00;2.72;;;;;;;18.40;100.00;101374.13;5014448;28;1572720;-70
2023/09/13 00:30:32;;;;;;;6.85;3.33;;;;;;;18.01;100.00;101347.28;5070965;28;20072;-68
2023/09/13 00:32:58;;;;;;;4.90;3.70;;;;;;;18.01;100.00;101349.88;5070499;28;20509;-69
2023/09/13 00:35:23;;;;;;;4.93;3.50;;;;;;;17.91;100.00;101357.09;5070060;28;20120;-69
2023/09/13 00:37:50;;;;;;;5.05;3.38;;;;;;;17.79;100.00;101318.09;5069597;28;20045;-69
2023/09/13 00:40:16;;;;;;;5.25;3.83;;;;;;;18.50;100.00;101445.06;5071179;28;20115;-69
2023/09/13 00:42:41;;;;;;;4.13;3.70;;;;;;;17.82;100.00;101403.75;5070471;28;20498;-69
2023/09/13 00:45:07;;;;;;;4.88;3.85;;;;;;;17.91;100.00;101428.31;5070550;28;20035;-67
2023/09/13 00:47:33;;;;;;;6.00;3.55;;;;;;;18.34;100.00;101449.09;5070705;28;20094;-69
2023/09/13 00:49:59;;;;;;;5.45;3.88;;;;;;;18.03;100.00;101444.16;5070322;28;20032;-69
2023/09/13 00:52:24;;;;;;;4.80;3.63;;;;;;;17.96;100.00;101455.59;5070321;28;20384;-69
2023/09/13 00:54:53;;;;;;;5.53;3.70;;;;;;;17.59;100.00;101474.88;5070589;28;20028;-69
2023/09/13 00:57:20;;;;;;;12.55;4.18;;;;;;;18.39;100.00;101549.34;5070462;28;20127;-69
2023/09/13 00:59:45;;;;;;;7.70;4.20;;;;;;;18.19;100.00;101543.16;5070399;28;20182;-69
2023/09/13 01:02:11;;;;;;;7.32;3.80;;;;;;;18.05;100.00;101565.09;5070581;28;20554;-68
2023/09/13 01:04:38;;;;;;;5.13;3.88;;;;;;;17.82;100.00;101516.97;5070469;28;20479;-69
2023/09/13 01:07:08;;;;;;;5.10;3.90;;;;;;;18.12;100.00;101589.75;5070374;28;20410;-69
2023/09/13 01:09:34;;;;;;;5.03;3.67;;;;;;;17.90;100.00;101602.50;5070487;28;20067;-70
2023/09/13 01:12:03;;;;;;;4.30;3.65;;;;;;;17.69;100.00;101567.13;5070233;28;20059;-70
2023/09/13 01:14:28;;;;;;;4.65;3.88;;;;;;;17.67;100.00;101565.53;5070241;28;20908;-70
2023/09/13 01:16:56;;;;;;;5.38;3.75;;;;;;;17.74;100.00;101579.84;5070039;28;20025;-70
2023/09/13 01:20:14;;;;;;;6.30;3.90;;;;;;;17.99;100.00;101630.50;5070078;28;20070;-69
2023/09/13 01:23:05;;;;;;;5.82;4.22;;;;;;;18.05;100.00;101650.91;5060699;28;20041;-68
2023/09/13 01:26:03;;;;;;;6.13;3.90;;;;;;;17.38;100.00;101611.81;5070044;28;20028;-69
2023/09/13 01:28:37;;;;;;;5.88;4.13;;;;;;;17.81;100.00;101689.41;5070224;28;20055;-69
2023/09/13 01:31:06;;;;;;;5.00;4.50;;;;;;;17.59;100.00;101701.25;5070156;28;20113;-69
2023/09/13 01:33:32;;;;;;;8.65;4.25;;;;;;;17.11;100.00;101660.56;5068706;28;20426;-69
2023/09/13 01:35:57;;;;;;;4.65;4.18;;;;;;;17.27;100.00;101654.09;5070126;28;20056;-69
2023/09/13 01:38:23;;;;;;;5.60;4.03;;;;;;;17.96;100.00;101735.28;5070035;28;20471;-69
2023/09/13 01:40:51;;;;;;;6.03;4.25;;;;;;;17.49;100.00;101752.09;5069982;28;20064;-69
2023/09/13 01:43:20;;;;;;;5.80;4.63;;;;;;;17.58;100.00;101746.72;5069858;28;20037;-69
2023/09/13 01:45:47;;;;;;;5.72;4.50;;;;;;;17.35;100.00;101723.34;5068643;28;20025;-69
2023/09/13 01:48:13;;;;;;;5.78;4.45;;;;;;;17.57;100.00;101718.47;5071912;28;20095;-69
2023/09/13 01:50:40;;;;;;;5.85;4.28;;;;;;;17.84;100.00;101792.28;5073427;28;20032;-68
2023/09/13 01:53:06;;;;;;;6.15;4.32;;;;;;;17.25;100.00;101745.03;5073537;28;20033;-69
2023/09/13 01:55:35;;;;;;;7.05;4.40;;;;;;;17.68;100.00;101796.16;5073444;28;20047;-68
2023/09/13 01:58:01;;;;;;;5.90;4.40;;;;;;;17.25;100.00;101792.13;5073798;28;20536;-70
2023/09/13 02:00:26;;;;;;;4.80;3.83;;;;;;;17.23;100.00;101801.63;5073629;28;20024;-69
2023/09/13 02:02:52;;;;;;;4.68;4.18;;;;;;;17.31;100.00;101804.00;5073340;28;20495;-70
2023/09/13 02:05:17;;;;;;;6.75;3.88;;;;;;;17.58;100.00;101877.91;5075548;28;20111;-69
2023/09/13 02:07:42;;;;;;;5.25;3.60;;;;;;;16.99;100.00;101814.28;5087929;28;20032;-67
2023/09/13 02:10:08;;;;;;;7.53;3.78;;;;;;;17.00;100.00;101823.66;5078340;28;20021;-70
2023/09/13 02:12:33;;;;;;;6.22;3.83;;;;;;;17.61;100.00;101902.72;5073209;28;20074;-70
2023/09/13 02:14:59;;;;;;;4.65;3.97;;;;;;;17.52;100.00;101915.78;5073173;28;20040;-69
2023/09/13 02:17:24;;;;;;;4.70;3.60;;;;;;;17.14;100.00;101886.69;5073282;28;20040;-69
2023/09/13 02:19:50;;;;;;;4.28;3.65;;;;;;;17.20;100.00;101926.84;5072583;28;20024;-69
2023/09/13 02:22:16;;;;;;;4.85;3.80;;;;;;;16.97;100.00;101883.69;5073180;28;20111;-69
2023/09/13 02:24:42;;;;;;;6.05;4.18;;;;;;;16.99;100.00;101899.94;5072649;28;20043;-70
2023/09/13 02:27:08;;;;;;;8.55;4.25;;;;;;;17.25;100.00;101971.31;5072731;28;20032;-70
2023/09/13 02:29:33;;;;;;;4.35;3.95;;;;;;;17.01;100.00;101993.28;5072539;28;20535;-70
2023/09/13 02:31:58;;;;;;;6.40;4.00;;;;;;;16.97;100.00;101983.09;5074229;28;20032;-72
2023/09/13 02:34:24;;;;;;;5.70;4.40;;;;;;;17.17;100.00;102010.00;5071249;28;20081;-70
2023/09/13 02:36:49;;;;;;;5.10;4.47;;;;;;;17.21;100.00;102037.34;5072867;28;20029;-70
2023/09/13 02:39:35;;;;;;;5.03;4.40;;;;;;;17.08;100.00;102071.06;5072406;28;20225;-67
2023/09/13 02:42:02;;;;;;;7.55;4.28;;;;;;;17.03;100.00;102111.47;5071371;28;20028;-70
2023/09/13 02:44:27;;;;;;;6.38;4.80;;;;;;;17.15;100.00;102139.50;5072935;28;20032;-70
2023/09/13 02:46:53;;;;;;;6.05;4.50;;;;;;;16.78;100.00;102087.09;5071856;28;20498;-70
2023/09/13 02:49:18;;;;;;;5.50;5.00;;;;;;;16.64;100.00;102100.22;5072609;28;20025;-69
2023/09/13 02:51:44;;;;;;;7.38;4.97;;;;;;;16.80;100.00;102123.91;5072678;28;20021;-69
2023/09/13 02:54:09;;;;;;;6.78;4.93;;;;;;;17.07;100.00;102218.50;5072558;28;20036;-70
2023/09/13 02:56:34;;;;;;;5.35;4.85;;;;;;;17.09;100.00;102215.00;5072355;28;20482;-71
2023/09/13 02:59:00;;;;;;;5.75;4.57;;;;;;;17.09;100.00;102240.69;5071345;28;20064;-70
2023/09/13 03:01:25;;;;;;;7.70;4.75;;;;;;;16.92;100.00;102205.91;5071920;28;20482;-72
2023/09/13 03:03:51;;;;;;;5.55;4.85;;;;;;;17.30;100.00;102283.19;5072355;28;20402;-70
2023/09/13 03:06:16;;;;;;;7.00;4.82;;;;;;;17.19;100.00;102283.38;5071914;28;20044;-73
2023/09/13 03:08:42;;;;;;;6.80;5.07;;;;;;;16.73;100.00;102237.94;5053838;28;20047;-70
2023/09/13 03:11:18;;;;;;;5.70;4.85;;;;;;;17.15;100.00;102268.88;5053982;28;20135;-69
2023/09/13 03:13:44;;;;;;;6.50;4.78;;;;;;;17.29;100.00;102307.22;5071789;28;20035;-69
2023/09/13 03:16:28;;;;;;;5.30;4.75;;;;;;;17.29;100.00;102392.91;5070326;28;20023;-69
2023/09/13 03:18:54;;;;;;;5.53;4.90;;;;;;;16.94;100.00;102358.38;5085440;28;20122;-70
2023/09/13 03:21:20;;;;;;;7.35;5.07;;;;;;;16.82;100.00;102433.06;5088114;28;20127;-69
2023/09/13 03:23:50;;;;;;;6.57;5.07;;;;;;;17.33;100.00;102564.31;5083475;28;20081;-69
2023/09/13 03:26:23;;;;;;;8.35;5.80;;;;;;;16.73;100.00;102470.03;5053732;28;20414;-70
2023/09/13 03:28:56;;;;;;;9.30;5.72;;;;;;;17.22;100.00;102589.34;5070154;28;20048;-67
2023/09/13 03:31:24;;;;;;;8.52;5.57;;;;;;;17.38;100.00;102594.25;5076242;28;20032;-69
2023/09/13 03:33:51;;;;;;;9.68;5.60;;;;;;;16.87;100.00;102578.66;5059523;28;20170;-69
2023/09/13 03:36:17;;;;;;;7.30;5.25;;;;;;;17.55;100.00;102677.25;5071648;28;20119;-70
2023/09/13 03:38:44;;;;;;;9.55;5.68;;;;;;;17.05;100.00;102634.13;5070241;28;20163;-69
2023/09/13 03:41:12;;;;;;;8.90;5.88;;;;;;;16.74;100.00;102763.84;5071000;28;20032;-69
2023/09/13 03:43:37;;;;;;;10.27;6.15;;;;;;;17.18;100.00;102955.41;5084396;28;20032;-72
2023/09/13 03:46:05;;;;;;;8.63;6.47;;;;;;;17.11;100.00;103054.00;5069860;28;20029;-73
2023/09/13 03:48:32;;;;;;;7.72;6.25;;;;;;;17.11;100.00;103146.59;5068740;28;20033;-71
2023/09/13 03:50:57;;;;;;;9.40;6.22;;;;;;;16.99;100.00;103204.94;5070866;28;20028;-70
2023/09/13 03:53:24;;;;;;;11.05;7.07;;;;;;;16.90;100.00;103270.06;5071179;28;20461;-70
2023/09/13 03:55:50;;;;;;;11.23;6.88;;;;;;;17.01;100.00;103303.47;5069832;28;20032;-70
2023/09/13 03:58:15;;;;;;;8.90;6.43;;;;;;;17.04;100.00;103362.59;5071118;28;20068;-70
2023/09/13 04:00:41;;;;;;;9.85;6.90;;;;;;;16.68;100.00;103342.88;5071208;28;20454;-71
2023/09/13 04:03:06;;;;;;;9.30;7.10;;;;;;;17.10;100.00;103430.34;5071140;28;20055;-69
2023/09/13 04:05:32;;;;;;;6.97;6.28;;;;;;;17.01;100.00;103440.63;5070733;28;20032;-69
2023/09/13 04:07:58;;;;;;;9.98;6.30;;;;;;;17.06;100.00;103456.91;5070542;28;20024;-70
2023/09/13 04:10:23;;;;;;;10.25;6.57;;;;;;;17.00;100.00;103456.03;5069871;28;20067;-69
2023/09/13 04:12:49;;;;;;;7.93;7.03;;;;;;;16.21;100.00;103399.25;5069428;28;20067;-70
2023/09/13 04:15:15;;;;;;;10.35;6.80;;;;;;;16.66;100.00;103473.09;5070558;28;20098;-70
2023/09/13 04:17:40;;;;;;;8.73;6.40;;;;;;;16.43;100.00;103454.13;5070113;28;20071;-69
2023/09/13 04:20:06;;;;;;;14.18;6.90;;;;;;;16.69;100.00;103519.38;5070474;28;20117;-69
2023/09/13 04:22:32;;;;;;;9.65;7.28;;;;;;;16.98;100.00;103552.88;5069228;28;20028;-68
2023/09/13 04:24:57;;;;;;;8.60;7.50;;;;;;;17.03;100.00;103562.34;5068968;28;20029;-69
2023/09/13 04:27:23;;;;;;;12.93;7.55;;;;;;;16.83;100.00;103515.13;5069033;28;20210;-74
2023/09/13 04:29:49;;;;;;;9.45;7.20;;;;;;;17.20;100.00;103564.94;5071061;28;20044;-70
2023/09/13 04:32:15;;;;;;;12.63;7.22;;;;;;;16.51;100.00;103485.88;5070510;28;20089;-70
2023/09/13 04:34:40;;;;;;;8.43;6.78;;;;;;;16.68;100.00;103514.22;5070285;28;20028;-70
2023/09/13 04:37:06;;;;;;;7.75;6.82;;;;;;;17.17;100.00;103573.50;5070098;28;20388;-72
2023/09/13 04:39:32;;;;;;;20.52;13.00;;;;;;;17.22;100.00;103569.25;5070385;28;20024;-69
2023/09/13 04:41:59;;;;;;;6.28;5.60;;;;;;;17.40;100.00;103559.84;5069138;28;20507;-72
2023/09/13 04:44:25;;;;;;;11.35;6.20;;;;;;;17.21;100.00;103468.94;5058024;28;20032;-74
2023/09/13 04:46:52;;;;;;;10.68;6.43;;;;;;;17.27;100.00;103422.63;5050530;28;20179;-72
2023/09/13 04:49:17;;;;;;;9.40;6.05;;;;;;;17.10;100.00;103386.63;5050099;28;20025;-76
2023/09/13 04:51:43;;;;;;;11.13;6.03;;;;;;;17.30;100.00;103409.75;5050566;28;20510;-75
2023/09/13 04:54:08;;;;;;;11.93;6.53;;;;;;;17.20;100.00;103379.75;5050099;28;20025;-74
2023/09/13 04:56:34;;;;;;;12.55;6.22;;;;;;;17.50;100.00;103360.88;5050599;28;20040;-73
2023/09/13 04:58:59;;;;;;;10.98;6.10;;;;;;;17.69;100.00;103326.53;5050773;28;20461;-73
2023/09/13 05:01:24;;;;;;;12.10;6.05;;;;;;;17.34;100.00;103203.09;5051014;28;20456;-74
2023/09/13 05:03:52;;;;;;;12.57;6.53;;;;;;;17.27;100.00;103119.09;5049276;28;20028;-75
2023/09/13 05:06:17;;;;;;;13.10;7.03;;;;;;;17.28;100.00;103008.50;5050330;28;20033;-74
2023/09/13 05:08:43;;;;;;;12.52;6.90;;;;;;;17.44;100.00;102878.00;5031940;28;20036;-73
2023/09/13 05:11:08;;;;;;;14.30;6.43;;;;;;;17.75;100.00;102757.59;5049997;28;20555;-75
2023/09/13 05:13:34;;;;;;;12.15;7.15;;;;;;;18.03;100.00;102650.78;5050350;28;20033;-74
2023/09/13 05:15:59;;;;;;;15.80;7.38;;;;;;;18.09;100.00;102470.44;5049855;28;20134;-72
2023/09/13 05:18:24;;;;;;;22.77;9.63;;;;;;;18.25;100.00;102366.22;5050824;28;20033;-70
2023/09/13 05:20:50;;;;;;;17.20;8.15;;;;;;;18.92;100.00;102365.56;5032924;28;20403;-75
2023/09/13 05:23:15;;;;;;;13.23;8.30;;;;;;;19.09;100.00;102306.72;5043537;28;20033;-75
2023/09/13 05:25:45;;;;;;;13.25;7.70;;;;;;;19.08;100.00;102229.34;5064765;28;20027;-75
2023/09/13 05:28:12;;;;;;;13.45;8.45;;;;;;;19.34;100.00;102183.09;5056974;28;20029;-74
2023/09/13 05:30:37;;;;;;;13.73;9.57;;;;;;;19.67;100.00;102202.75;5053143;28;20391;-75
2023/09/13 05:33:03;;;;;;;15.23;8.25;;;;;;;19.48;100.00;102140.50;5054456;28;20035;-75
2023/09/13 05:35:32;;;;;;;13.85;10.55;;;;;;;20.01;100.00;102182.75;5053262;28;20082;-75
2023/09/13 05:37:58;;;;;;;11.75;8.48;;;;;;;20.41;100.00;102172.00;5054050;28;20057;-75
2023/09/13 05:40:27;;;;;;;10.05;7.40;;;;;;;20.30;100.00;102076.72;5053340;28;20119;-75
2023/09/13 05:42:52;;;;;;;8.75;6.70;;;;;;;20.82;100.00;102105.94;5053332;28;20425;-75
2023/09/13 05:45:18;;;;;;;13.65;6.40;;;;;;;20.64;100.00;102084.16;5036300;28;20033;-75
2023/09/13 05:47:43;;;;;;;10.52;5.80;;;;;;;21.03;100.00;102059.47;5053996;28;20041;-75
2023/09/13 05:50:09;;;;;;;9.70;5.32;;;;;;;20.71;100.00;102037.34;5054170;28;20411;-75
2023/09/13 05:52:37;;;;;;;8.63;5.10;;;;;;;21.17;100.00;102023.56;5053677;28;20123;-74
2023/09/13 05:55:03;;;;;;;8.38;5.13;;;;;;;21.41;100.00;101978.56;5054059;28;20025;-75
2023/09/13 05:57:28;;;;;;;9.10;4.78;;;;;;;21.62;100.00;101919.03;5054061;28;20033;-73
2023/09/13 05:59:53;;;;;;;9.07;4.65;;;;;;;21.37;100.00;101795.00;5054377;28;20036;-75
2023/09/13 06:02:19;;;;;;;7.40;4.35;;;;;;;21.86;100.00;101799.69;5052196;28;20057;-75
2023/09/13 06:04:44;;;;;;;7.55;4.45;;;;;;;21.99;100.00;101751.59;5035693;28;20034;-75
2023/09/13 06:07:10;;;;;;;6.10;4.20;;;;;;;21.88;100.00;101657.16;5053516;28;20634;-75
2023/09/13 06:09:35;;;;;;;7.85;3.83;;;;;;;22.26;100.00;101628.44;5036449;28;20479;-74
2023/09/13 06:12:01;;;;;;;7.68;3.97;;;;;;;22.65;100.00;101623.03;5053974;28;20075;-73
2023/09/13 06:14:27;;;;;;;4.63;3.97;;;;;;;22.05;100.00;101531.06;5035840;28;20497;-75
2023/09/13 06:16:53;;;;;;;7.03;3.67;;;;;;;22.16;100.00;101489.91;5053500;28;20033;-75
2023/09/13 06:19:18;;;;;;;6.25;3.80;;;;;;;22.47;100.00;101462.34;5053361;28;20033;-75
2023/09/13 06:21:45;;;;;;;9.93;4.80;;;;;;;22.63;100.00;101471.03;5053060;28;20120;-75
2023/09/13 06:24:11;;;;;;;11.85;4.80;;;;;;;22.88;100.00;101412.53;5053421;28;20025;-74
2023/09/13 06:26:36;;;;;;;7.10;4.10;;;;;;;23.19;100.00;101441.00;5052623;28;20091;-75
2023/09/13 06:29:02;;;;;;;8.07;4.15;;;;;;;23.09;100.00;101387.97;5053482;28;20048;-75
2023/09/13 06:31:27;;;;;;;6.47;4.50;;;;;;;22.78;100.00;101379.41;5053487;28;20131;-76
2023/09/13 06:33:53;;;;;;;9.02;4.57;;;;;;;23.00;100.00;101335.75;5052072;28;20518;-76
2023/09/13 06:36:19;;;;;;;8.68;4.63;;;;;;;23.20;100.00;101301.69;5053275;28;20025;-76
2023/09/13 06:38:44;;;;;;;7.88;4.43;;;;;;;23.27;100.00;101277.84;5051833;28;20064;-76
2023/09/13 06:41:09;;;;;;;7.47;4.07;;;;;;;23.84;100.00;101293.47;5052801;28;20636;-76
2023/09/13 06:43:36;;;;;;;10.77;4.38;;;;;;;23.82;100.00;101298.78;5053136;28;20033;-75
2023/09/13 06:46:02;;;;;;;7.68;3.97;;;;;;;24.19;100.00;101255.72;5053642;28;20029;-74
2023/09/13 06:48:28;;;;;;;4.55;3.30;;;;;;;23.55;100.00;101269.28;5053070;28;20032;-74
2023/09/13 06:50:53;;;;;;;7.10;3.28;;;;;;;23.37;100.00;101226.28;5034195;28;20048;-74
2023/09/13 06:53:19;;;;;;;6.00;3.17;;;;;;;23.90;100.00;101259.31;5051584;28;20515;-73
2023/09/13 06:55:44;;;;;;;4.20;3.33;;;;;;;24.12;100.00;101196.44;5052837;28;20465;-73
2023/09/13 06:58:10;;;;;;;5.93;3.40;;;;;;;23.68;100.00;101233.00;5034283;28;20033;-72
2023/09/13 07:00:35;;;;;;;5.15;3.20;;;;;;;24.06;100.00;101229.72;5050983;28;20123;-72
2023/09/13 07:03:04;;;;;;;6.15;3.17;;;;;;;24.43;100.00;101225.56;5051020;28;20071;-72
2023/09/13 07:05:29;;;;;;;7.88;3.88;;;;;;;24.01;100.00;101207.47;5052056;28;20032;-72
2023/09/13 07:07:55;;;;;;;5.88;3.50;;;;;;;24.54;100.00;101206.66;5052004;28;20120;-71
2023/09/13 07:10:20;;;;;;;6.32;3.55;;;;;;;24.48;100.00;101168.84;5051805;28;20029;-72
2023/09/13 07:12:46;;;;;;;6.95;3.90;;;;;;;24.43;100.00;101214.31;5051988;28;20018;-74
2023/09/13 07:15:11;;;;;;;8.07;3.80;;;;;;;24.76;100.00;101160.09;5050618;28;20036;-73
2023/09/13 07:17:37;;;;;;;6.82;3.80;;;;;;;25.14;100.00;101144.41;5051956;28;20028;-72
2023/09/13 07:20:05;;;;;;;6.47;3.67;;;;;;;24.76;100.00;101170.50;5051828;28;20082;-72
2023/09/13 07:22:31;;;;;;;8.38;3.60;;;;;;;24.59;100.00;101215.81;5051937;28;20550;-72
2023/09/13 07:24:56;;;;;;;13.27;3.67;;;;;;;25.92;100.00;101190.06;5051996;28;20435;-73
2023/09/13 07:27:22;;;;;;;4.35;3.22;;;;;;;25.49;100.00;101187.09;5050681;28;20032;-73
2023/09/13 07:29:48;;;;;;;6.55;3.63;;;;;;;25.64;100.00;101193.81;5050126;28;20581;-73
2023/09/13 07:32:13;;;;;;;6.53;3.30;;;;;;;25.46;100.00;101205.53;5052005;28;20540;-73
2023/09/13 07:34:39;;;;;;;5.97;3.40;;;;;;;24.91;100.00;101143.41;5051363;28;20116;-72
2023/09/13 07:37:04;;;;;;;4.35;2.90;;;;;;;24.91;100.00;101152.06;5051606;28;20032;-68
2023/09/13 07:39:30;;;;;;;5.38;3.30;;;;;;;25.78;100.00;101204.94;5051695;28;20029;-73
2023/09/13 07:41:55;;;;;;;5.30;3.03;;;;;;;25.59;100.00;101182.91;5051705;28;20063;-73
2023/09/13 07:44:21;;;;;;;6.88;3.10;;;;;;;25.84;100.00;101184.56;5051712;28;20036;-73
2023/09/13 07:46:46;;;;;;;7.82;2.95;;;;;;;25.50;100.00;101181.78;5049673;28;20087;-73
2023/09/13 07:49:11;;;;;;;4.90;3.22;;;;;;;26.11;100.00;101167.78;5051889;28;20025;-72
2023/09/13 07:51:37;;;;;;;8.18;3.42;;;;;;;25.92;100.00;101154.41;5051449;28;20024;-72
2023/09/13 07:54:03;;;;;;;6.50;3.33;;;;;;;26.41;100.00;101083.81;5051390;28;20506;-73
2023/09/13 07:56:30;;;;;;;4.20;3.10;;;;;;;26.57;100.00;101126.91;5033688;28;20592;-72
2023/09/13 07:58:56;;;;;;;6.72;3.60;;;;;;;26.58;100.00;101065.09;5051579;28;20060;-72
2023/09/13 08:01:21;;;;;;;6.78;3.40;;;;;;;26.14;100.00;101153.69;5051365;28;20067;-72
2023/09/13 08:03:47;;;;;;;5.90;3.42;;;;;;;26.85;100.00;101116.97;5051073;28;20491;-72
2023/09/13 08:06:12;;;;;;;8.15;3.22;;;;;;;26.84;100.00;101113.53;5051256;28;20044;-72
2023/09/13 08:08:38;;;;;;;7.55;3.30;;;;;;;26.39;100.00;101140.47;5049751;28;20029;-71
2023/09/13 08:11:03;;;;;;;6.70;3.50;;;;;;;26.53;100.00;101142.88;5051241;28;20613;-72
2023/09/13 08:13:29;;;;;;;5.80;3.45;;;;;;;26.44;100.00;101127.94;5051000;28;20032;-73
2023/09/13 08:15:55;;;;;;;9.93;3.30;;;;;;;26.12;100.00;101095.63;5051000;28;20411;-73
2023/09/13 08:18:20;;;;;;;8.65;3.20;;;;;;;26.46;100.00;101058.22;5050743;28;20474;-73
2023/09/13 08:20:46;;;;;;;7.10;3.13;;;;;;;27.57;100.00;101086.84;5050881;28;20029;-73
2023/09/13 08:23:11;;;;;;;5.43;3.65;;;;;;;27.46;100.00;101095.53;5050937;28;20025;-72
2023/09/13 08:25:37;;;;;;;9.70;3.55;;;;;;;26.40;100.00;101113.47;5050695;28;20033;-73
2023/09/13 08:28:03;;;;;;;5.22;3.22;;;;;;;26.69;100.00;101051.19;5049458;28;20025;-72
2023/09/13 08:30:30;;;;;;;5.32;3.50;;;;;;;26.47;100.00;101107.66;5049792;28;20036;-71
2023/09/13 08:32:55;;;;;;;5.13;3.20;;;;;;;27.22;100.00;101093.06;5050729;28;20406;-73
2023/09/13 08:35:21;;;;;;;5.60;3.33;;;;;;;27.71;100.00;101056.00;5051186;28;20035;-73
2023/09/13 08:37:47;;;;;;;5.65;3.47;;;;;;;27.63;100.00;101031.47;5051359;28;20033;-74
2023/09/13 08:40:13;;;;;;;6.45;3.60;;;;;;;27.43;100.00;100957.31;5052549;28;20032;-74
2023/09/13 08:42:44;;;;;;;4.50;3.58;;;;;;;27.44;100.00;101014.66;5062149;28;20040;-74
2023/09/13 08:45:10;;;;;;;4.53;3.20;;;;;;;27.87;100.00;101045.13;5053754;28;20487;-73
2023/09/13 08:47:41;;;;;;;3.70;3.10;;;;;;;28.17;100.00;101034.72;5049436;28;20036;-72
2023/09/13 08:50:07;;;;;;;5.70;3.50;;;;;;;27.87;100.00;100956.22;5050983;28;20033;-73
2023/09/13 08:52:35;;;;;;;4.55;3.40;;;;;;;27.11;100.00;101009.53;5032769;28;20044;-74
2023/09/13 08:55:03;;;;;;;14.60;3.72;;;;;;;28.33;100.00;101029.84;5032972;28;20029;-75
2023/09/13 08:57:31;;;;;;;4.57;3.58;;;;;;;28.00;100.00;101023.06;5051967;28;20024;-74
2023/09/13 08:59:56;;;;;;;5.82;3.47;;;;;;;27.58;100.00;101015.31;5054753;28;20411;-74
2023/09/13 09:02:24;;;;;;;6.53;3.53;;;;;;;28.92;100.00;100964.50;5054654;28;20033;-75
2023/09/13 09:04:51;;;;;;;5.32;3.15;;;;;;;27.99;100.00;100957.81;5055184;28;20028;-75
2023/09/13 09:07:19;;;;;;;7.13;3.55;;;;;;;28.22;100.00;100998.53;5054522;28;20036;-74
2023/09/13 09:09:46;;;;;;;6.10;3.55;;;;;;;28.75;100.00;100912.75;5054768;28;20039;-74
2023/09/13 09:12:16;;;;;;;6.63;3.70;;;;;;;28.80;100.00;100976.84;5054721;28;20029;-72
2023/09/13 09:14:43;;;;;;;9.23;3.30;;;;;;;28.10;100.00;100957.72;5054646;28;20036;-73
2023/09/13 09:17:11;;;;;;;8.55;3.45;;;;;;;28.58;100.00;100984.13;5054576;28;20029;-74
2023/09/13 09:19:37;;;;;;;10.68;3.80;;;;;;;28.80;100.00;100971.63;5054485;28;20542;-73
2023/09/13 09:22:03;;;;;;;9.20;3.28;;;;;;;27.54;100.00;100863.13;5054334;28;20124;-74
2023/09/13 09:24:29;;;;;;;7.07;4.28;;;;;;;28.83;100.00;100913.75;5054160;28;20057;-72
2023/09/13 09:26:55;;;;;;;6.72;3.63;;;;;;;28.95;100.00;100917.88;5054144;28;20119;-73
2023/09/13 09:29:33;;;;;;;8.55;3.80;;;;;;;28.05;100.00;100989.50;5052603;28;20516;-74
2023/09/13 09:31:59;;;;;;;5.53;3.33;;;;;;;27.71;100.00;100927.88;5054389;28;20029;-74
2023/09/13 09:34:30;;;;;;;5.85;3.58;;;;;;;29.26;100.00;100878.47;5054243;28;20039;-74
2023/09/13 09:37:01;;;;;;;;;;;;;;;29.21;100.00;100948.81;5053508;28;20029;-72
2023/09/13 09:39:27;;;;;;;5.47;3.97;;;;;;;29.10;100.00;100945.31;5054033;28;19970;-73
2023/09/13 09:41:57;;;;;;;6.90;3.50;;;;;;;29.45;100.00;100929.06;5053987;28;20029;-74
2023/09/13 09:44:27;;;;;;;9.85;3.28;;;;;;;28.36;100.00;100914.47;5054026;28;20119;-74
2023/09/13 09:46:53;;;;;;;8.65;3.65;;;;;;;29.18;100.00;100938.63;5054234;28;20090;-72
2023/09/13 09:49:18;;;;;;;5.35;3.58;;;;;;;28.48;100.00;100884.59;5053775;28;20021;-73
2023/09/13 09:51:44;;;;;;;7.15;3.50;;;;;;;29.15;100.00;100923.16;5054017;28;20094;-74
2023/09/13 09:54:10;;;;;;;5.03;3.72;;;;;;;29.71;100.00;100835.72;5052462;28;20509;-74
2023/09/13 09:56:35;;;;;;;8.63;3.67;;;;;;;29.96;100.00;100873.59;5053666;28;20029;-75
2023/09/13 09:59:01;;;;;;;5.07;3.47;;;;;;;29.43;100.00;100909.19;5053927;28;20029;-74
2023/09/13 10:01:27;;;;;;;8.65;3.85;;;;;;;30.66;100.00;100871.09;5054008;28;20093;-75
2023/09/13 10:03:56;;;;;;;5.70;3.47;;;;;;;29.60;100.00;100887.47;5053454;28;20032;-73
2023/09/13 10:06:22;;;;;;;8.38;3.65;;;;;;;30.06;100.00;100881.41;5052567;28;20036;-74
2023/09/13 10:08:49;;;;;;;5.68;3.70;;;;;;;29.54;100.00;100835.59;5053163;28;20033;-73
2023/09/13 10:11:17;;;;;;;6.53;3.55;;;;;;;29.87;100.00;100837.75;5052690;28;20432;-74
2023/09/13 10:13:46;;;;;;;5.13;3.60;;;;;;;29.89;100.00;100877.78;5052474;28;20033;-74
2023/09/13 10:16:16;;;;;;;8.27;3.50;;;;;;;30.30;100.00;100881.72;5053829;28;20036;-73
2023/09/13 10:18:52;;;;;;;6.72;3.10;;;;;;;30.65;100.00;100845.00;5052413;28;20033;-74
2023/09/13 10:21:24;;;;;;;6.05;3.42;;;;;;;29.94;100.00;100817.81;5052067;28;20043;-74
2023/09/13 10:24:03;;;;;;;7.53;3.38;;;;;;;29.12;100.00;100914.56;5053793;28;20033;-74
2023/09/13 10:26:33;;;;;;;10.70;3.65;;;;;;;30.01;100.00;100881.03;5053088;28;20037;-76
2023/09/13 10:29:14;;;;;;;4.15;3.40;;;;;;;30.29;100.00;100859.88;5053475;28;20041;-75
2023/09/13 10:31:43;;;;;;;6.05;3.30;;;;;;;30.46;100.00;100779.50;5053408;28;20033;-71
2023/09/13 10:34:14;;;;;;;7.15;3.70;;;;;;;30.82;100.00;100789.00;5035734;28;20043;-73
2023/09/13 10:36:45;;;;;;;;;;;;;;;30.91;100.00;100817.00;5053717;28;20040;-75
2023/09/13 10:39:21;;;;;;;6.35;3.50;;;;;;;30.73;100.00;100840.66;5053196;28;19912;-75
2023/09/13 10:41:58;;;;;;;5.35;3.72;;;;;;;29.99;100.00;100749.16;5053183;28;20033;-77
2023/09/13 10:44:24;;;;;;;7.65;3.78;;;;;;;30.84;100.00;100762.59;5053208;28;20028;-75
2023/09/13 10:46:50;;;;;;;7.45;3.80;;;;;;;30.72;100.00;100832.91;5053457;28;20110;-74
2023/09/13 10:49:15;;;;;;;7.10;3.50;;;;;;;30.36;100.00;100854.88;5035569;28;20060;-76
2023/09/13 10:51:43;;;;;;;6.05;3.40;;;;;;;29.80;100.00;100805.16;5053391;28;20024;-75
2023/09/13 10:54:09;;;;;;;7.40;3.50;;;;;;;30.51;100.00;100770.19;5052179;28;20079;-75
2023/09/13 10:56:35;;;;;;;6.60;3.50;;;;;;;31.05;100.00;100729.72;5052822;28;20043;-75
2023/09/13 10:59:01;;;;;;;6.80;3.80;;;;;;;31.26;100.00;100743.28;5053050;28;20089;-76
2023/09/13 11:01:27;;;;;;;6.75;3.60;;;;;;;31.12;100.00;100745.69;5052786;28;20104;-74
2023/09/13 11:03:54;;;;;;;8.18;3.35;;;;;;;31.37;100.00;100715.91;5053227;28;20025;-75
2023/09/13 11:06:22;;;;;;;6.25;3.58;;;;;;;31.41;100.00;100712.03;5051712;28;20491;-75
2023/09/13 11:08:47;;;;;;;5.88;3.38;;;;;;;31.17;100.00;100707.44;5052912;28;20029;-74
2023/09/13 11:11:18;;;;;;;4.85;3.42;;;;;;;30.93;100.00;100743.28;5052342;28;20037;-75
2023/09/13 11:13:53;;;;;;;4.53;3.30;;;;;;;30.50;100.00;100679.28;5034900;28;20037;-76
2023/09/13 11:16:22;;;;;;;5.20;3.97;;;;;;;31.62;100.00;100707.16;5051827;28;20037;-76